Time;durP1;ratioP1;P1;durP2;ratioP2;P2;SDS_P1;SDS_P2;PMS_P1;PMS_P2;Temp;Humidity;BMP_temperature;BMP_pressure;BME280_temperature;BME280_humidity;BME280_pressure;Samples;Min_cycle;Max_cycle;Signal;HPM_P1;HPM_P2
2022/05/19 00:02:16;;;;;;;6.40;3.53;;;16.50;99.90;;;;;;5064949;28;20680;-72
2022/05/19 00:04:44;;;;;;;5.60;3.73;;;16.40;99.90;;;;;;5066917;28;20298;-72
2022/05/19 00:07:12;;;;;;;3.70;3.33;;;16.40;99.90;;;;;;5059927;28;20215;-72
2022/05/19 00:09:39;;;;;;;5.30;3.87;;;16.30;99.90;;;;;;5064619;28;20198;-72
2022/05/19 00:12:14;;;;;;;5.77;4.00;;;16.40;99.90;;;;;;5057134;28;20340;-72
2022/05/19 00:14:46;;;;;;;7.17;4.03;;;16.40;99.90;;;;;;5062049;28;20290;-72
2022/05/19 00:17:16;;;;;;;5.93;4.10;;;16.30;99.90;;;;;;5073143;28;20228;-72
2022/05/19 00:19:42;;;;;;;4.47;3.73;;;16.30;99.90;;;;;;5052200;28;20229;-72
2022/05/19 00:22:11;;;;;;;6.07;3.90;;;16.30;99.90;;;;;;5060577;28;20222;-72
2022/05/19 00:24:38;;;;;;;6.20;4.57;;;16.30;99.90;;;;;;5047456;28;20662;-72
2022/05/19 00:27:04;;;;;;;7.10;4.00;;;16.30;99.90;;;;;;5042882;28;20202;-72
2022/05/19 00:29:30;;;;;;;4.67;4.20;;;16.30;99.90;;;;;;5069625;28;20186;-72
2022/05/19 00:31:58;;;;;;;5.50;4.20;;;16.30;99.90;;;;;;5059134;28;20211;-72
2022/05/19 00:34:24;;;;;;;4.97;4.10;;;16.20;99.90;;;;;;5024767;28;20253;-72
2022/05/19 00:37:02;;;;;;;4.73;3.97;;;16.20;99.90;;;;;;5055541;28;20671;-72
2022/05/19 00:39:29;;;;;;;6.53;4.23;;;16.20;99.90;;;;;;5051760;28;20651;-72
2022/05/19 00:44:45;;;;;;;4.13;3.73;;;16.20;99.90;;;;;;5054357;28;20651;-72
2022/05/19 00:47:23;;;;;;;4.50;3.90;;;16.10;99.90;;;;;;5056705;28;20277;-72
2022/05/19 00:49:52;;;;;;;3.73;3.33;;;16.10;99.90;;;;;;5062809;28;20191;-72
2022/05/19 00:52:30;;;;;;;6.70;3.80;;;16.00;99.90;;;;;;5073875;28;20681;-72
2022/05/19 00:55:34;;;;;;;7.67;4.03;;;16.00;99.90;;;;;;5066378;28;20461;-72
2022/05/19 00:58:13;;;;;;;5.77;4.10;;;16.00;99.90;;;;;;5064816;28;20236;-72
2022/05/19 01:00:41;;;;;;;4.90;3.90;;;15.90;99.90;;;;;;5058614;28;20214;-72
2022/05/19 01:03:11;;;;;;;4.07;3.53;;;15.90;99.90;;;;;;5061430;28;20194;-72
2022/05/19 01:05:46;;;;;;;4.77;3.83;;;15.80;99.90;;;;;;5052009;28;20191;-72
2022/05/19 01:08:44;;;;;;;6.67;4.40;;;15.80;99.90;;;;;;5067458;28;20203;-72
2022/05/19 01:11:13;;;;;;;6.73;4.17;;;15.80;99.90;;;;;;5075077;28;20183;-72
2022/05/19 01:13:45;;;;;;;6.53;4.13;;;15.70;99.90;;;;;;5045558;28;20201;-72
2022/05/19 01:16:14;;;;;;;4.27;3.87;;;15.70;99.90;;;;;;5050074;28;20179;-72
2022/05/19 01:18:42;;;;;;;4.30;3.90;;;15.60;99.90;;;;;;5084979;28;20225;-72
2022/05/19 01:21:11;;;;;;;5.33;3.87;;;15.70;99.90;;;;;;5048002;28;20290;-72
2022/05/19 01:23:52;;;;;;;5.23;3.70;;;15.70;99.90;;;;;;5054512;28;20187;-72
2022/05/19 01:26:36;;;;;;;4.53;3.87;;;15.80;99.90;;;;;;5042936;28;20187;-72
2022/05/19 01:29:03;;;;;;;5.57;4.00;;;15.90;99.90;;;;;;5054912;28;20219;-72
2022/05/19 01:31:56;;;;;;;5.73;4.00;;;15.90;99.90;;;;;;5053527;28;20269;-72
2022/05/19 01:34:27;;;;;;;4.80;3.97;;;15.80;99.90;;;;;;5066571;28;20600;-72
2022/05/19 01:36:55;;;;;;;7.23;3.90;;;15.70;99.90;;;;;;5077370;28;20179;-72
2022/05/19 01:39:29;;;;;;;6.10;3.93;;;15.70;99.90;;;;;;5051884;28;20195;-72
2022/05/19 01:42:41;;;;;;;4.53;3.57;;;15.80;99.90;;;;;;5065325;28;20213;-72
2022/05/19 01:45:40;;;;;;;6.80;3.90;;;15.70;99.90;;;;;;5050947;28;20191;-72
2022/05/19 01:48:53;;;;;;;6.13;4.00;;;15.70;99.90;;;;;;5039960;28;20212;-72
2022/05/19 01:51:31;;;;;;;4.80;3.43;;;15.80;99.90;;;;;;5038659;28;20293;-72
2022/05/19 01:54:57;;;;;;;3.63;2.93;;;15.80;99.90;;;;;;5058113;28;20279;-72
2022/05/19 01:57:34;;;;;;;3.93;3.40;;;15.70;99.90;;;;;;5059039;28;20253;-72
2022/05/19 02:00:24;;;;;;;5.20;3.53;;;15.70;99.90;;;;;;5024700;28;20327;-72
2022/05/19 02:02:59;;;;;;;4.50;3.67;;;15.70;99.90;;;;;;5061188;28;20186;-72
2022/05/19 02:05:50;;;;;;;3.50;3.20;;;15.60;99.90;;;;;;5048130;28;20191;-72
2022/05/19 02:08:31;;;;;;;6.90;3.37;;;15.60;99.90;;;;;;5092406;28;20555;-72
2022/05/19 02:11:03;;;;;;;5.10;3.43;;;15.60;99.90;;;;;;5053824;28;20755;-72
2022/05/19 02:13:33;;;;;;;4.70;3.20;;;15.50;99.90;;;;;;5066128;28;20218;-72
2022/05/19 02:16:04;;;;;;;5.10;3.40;;;15.50;99.90;;;;;;5056407;28;20185;-71
2022/05/19 02:18:31;;;;;;;5.30;3.20;;;15.40;99.90;;;;;;5067284;28;20240;-72
2022/05/19 02:21:02;;;;;;;4.27;3.23;;;15.50;99.90;;;;;;5059774;28;20613;-72
2022/05/19 02:23:32;;;;;;;4.33;3.50;;;15.50;99.90;;;;;;5046672;28;20283;-72
2022/05/19 02:25:58;;;;;;;5.50;3.27;;;15.50;99.90;;;;;;5046964;28;20678;-72
2022/05/19 02:28:59;;;;;;;6.80;3.00;;;15.50;99.90;;;;;;5065506;28;20279;-72
2022/05/19 02:31:29;;;;;;;8.03;3.10;;;15.40;99.90;;;;;;5064040;28;20213;-72
2022/05/19 02:33:55;;;;;;;5.10;3.27;;;15.40;99.90;;;;;;5065093;28;20183;-72
2022/05/19 02:36:22;;;;;;;6.43;3.17;;;15.40;99.90;;;;;;5050858;28;20201;-72
2022/05/19 02:38:49;;;;;;;3.67;3.20;;;15.40;99.90;;;;;;5080640;28;20675;-72
2022/05/19 02:41:18;;;;;;;4.17;3.00;;;15.40;99.90;;;;;;5064982;28;20857;-71
2022/05/19 02:43:47;;;;;;;3.73;3.00;;;15.30;99.90;;;;;;5043545;28;20201;-72
2022/05/19 02:46:14;;;;;;;5.97;3.53;;;15.30;99.90;;;;;;5063762;28;20197;-72
2022/05/19 02:48:40;;;;;;;6.20;3.10;;;15.30;99.90;;;;;;5066965;28;20293;-72
2022/05/19 02:51:07;;;;;;;4.40;3.10;;;15.30;99.90;;;;;;5045640;28;20539;-72
2022/05/19 02:53:34;;;;;;;4.57;3.00;;;15.30;99.90;;;;;;5047103;28;20183;-72
2022/05/19 02:56:00;;;;;;;7.10;2.70;;;15.30;99.90;;;;;;5042618;28;20312;-72
2022/05/19 02:58:28;;;;;;;3.80;2.90;;;15.30;99.90;;;;;;5063378;28;20190;-72
2022/05/19 03:00:54;;;;;;;3.50;3.20;;;15.20;99.90;;;;;;5044444;28;20220;-72
2022/05/19 03:03:20;;;;;;;4.63;2.77;;;15.20;99.90;;;;;;5061158;28;20191;-72
2022/05/19 03:05:47;;;;;;;5.23;3.23;;;15.20;99.90;;;;;;5048178;28;20186;-72
2022/05/19 03:08:16;;;;;;;4.73;2.87;;;15.20;99.90;;;;;;5065006;28;20686;-72
2022/05/19 03:10:44;;;;;;;4.80;3.00;;;15.20;99.90;;;;;;5067636;28;20516;-72
2022/05/19 03:13:21;;;;;;;6.10;3.07;;;15.30;99.90;;;;;;5087423;28;20267;-72
2022/05/19 03:15:48;;;;;;;6.17;3.60;;;15.40;99.90;;;;;;5047157;28;20186;-72
2022/05/19 03:18:22;;;;;;;5.50;2.87;;;15.40;99.90;;;;;;5064566;28;20710;-71
2022/05/19 03:20:55;;;;;;;9.03;3.10;;;15.40;99.90;;;;;;5036220;28;20201;-72
2022/05/19 03:23:22;;;;;;;3.60;2.90;;;15.50;99.90;;;;;;5079163;28;20261;-72
2022/05/19 03:25:48;;;;;;;3.37;3.03;;;15.50;99.90;;;;;;5067396;28;20239;-72
2022/05/19 03:28:15;;;;;;;3.80;2.83;;;15.50;99.90;;;;;;5054909;28;20207;-72
2022/05/19 03:30:43;;;;;;;5.93;3.00;;;15.50;99.90;;;;;;5063135;28;20191;-72
2022/05/19 03:33:10;;;;;;;4.83;3.13;;;15.60;99.90;;;;;;5042422;28;20838;-72
2022/05/19 03:35:40;;;;;;;6.10;3.00;;;15.60;99.90;;;;;;5063963;28;20762;-72
2022/05/19 03:38:08;;;;;;;6.53;3.17;;;15.60;99.90;;;;;;5059575;28;20190;-72
2022/05/19 03:40:34;;;;;;;2.97;2.73;;;15.70;99.90;;;;;;5065698;28;20191;-72
2022/05/19 03:43:01;;;;;;;3.87;2.93;;;15.70;99.90;;;;;;5069725;28;20324;-72
2022/05/19 03:45:30;;;;;;;5.40;2.97;;;15.70;99.90;;;;;;5079597;28;20297;-72
2022/05/19 03:47:56;;;;;;;6.07;2.93;;;15.70;99.90;;;;;;5049760;28;20212;-72
2022/05/19 03:50:23;;;;;;;5.47;3.13;;;15.70;99.90;;;;;;5056482;28;20587;-72
2022/05/19 03:52:49;;;;;;;4.23;2.83;;;15.80;99.90;;;;;;5032381;28;20174;-73
2022/05/19 03:55:20;;;;;;;3.97;3.00;;;15.80;99.90;;;;;;5050350;28;20194;-72
2022/05/19 03:57:46;;;;;;;4.77;3.00;;;15.90;99.90;;;;;;5061665;28;20194;-72
2022/05/19 04:00:13;;;;;;;3.73;2.80;;;15.90;99.90;;;;;;5056659;28;20194;-73
2022/05/19 04:02:40;;;;;;;3.23;2.93;;;15.90;99.90;;;;;;5058355;28;20218;-72
2022/05/19 04:05:09;;;;;;;9.10;3.40;;;15.90;99.90;;;;;;5061173;28;20191;-73
2022/05/19 04:07:37;;;;;;;3.00;2.70;;;16.00;99.90;;;;;;5046670;28;20206;-73
2022/05/19 04:10:05;;;;;;;5.60;3.40;;;16.00;99.90;;;;;;5060914;28;20605;-73
2022/05/19 04:12:31;;;;;;;4.67;3.20;;;16.10;99.90;;;;;;5034370;28;20604;-73
2022/05/19 04:15:00;;;;;;;4.10;3.37;;;16.10;99.90;;;;;;5063288;28;20333;-73
2022/05/19 04:17:33;;;;;;;4.83;3.00;;;16.20;99.90;;;;;;5061345;28;20199;-72
2022/05/19 04:20:02;;;;;;;4.77;3.27;;;16.30;99.90;;;;;;5070562;28;20217;-73
2022/05/19 04:22:29;;;;;;;4.20;3.43;;;16.50;99.90;;;;;;5043049;28;20302;-73
2022/05/19 04:24:55;;;;;;;4.17;3.30;;;16.60;99.90;;;;;;5060236;28;20207;-73
2022/05/19 04:27:25;;;;;;;4.57;3.20;;;16.60;99.90;;;;;;5079923;28;20695;-72
2022/05/19 04:29:54;;;;;;;3.90;3.10;;;16.70;99.90;;;;;;5031489;28;20228;-73
2022/05/19 04:32:24;;;;;;;3.53;3.23;;;16.80;99.90;;;;;;5057534;28;20286;-73
2022/05/19 04:34:51;;;;;;;4.33;3.20;;;16.90;99.90;;;;;;5047848;28;20248;-73
2022/05/19 04:37:18;;;;;;;4.53;3.10;;;17.00;99.90;;;;;;5076649;28;20524;-73
2022/05/19 04:39:45;;;;;;;4.40;3.10;;;17.10;99.90;;;;;;5031885;28;20726;-73
2022/05/19 04:42:13;;;;;;;5.17;3.20;;;17.20;99.90;;;;;;5066440;28;20207;-73
2022/05/19 04:44:40;;;;;;;4.00;3.03;;;17.20;99.90;;;;;;5063503;28;20290;-72
2022/05/19 04:47:07;;;;;;;5.33;3.20;;;17.30;99.90;;;;;;5051934;28;20201;-73
2022/05/19 04:49:35;;;;;;;3.70;2.97;;;17.50;99.90;;;;;;5044113;28;20222;-72
2022/05/19 04:52:01;;;;;;;4.73;3.37;;;17.50;99.90;;;;;;5062954;28;20656;-72
2022/05/19 04:54:27;;;;;;;3.30;2.90;;;17.60;99.90;;;;;;5055650;28;21722;-73
2022/05/19 04:56:54;;;;;;;3.43;3.13;;;17.60;99.90;;;;;;5044623;28;20183;-72
2022/05/19 04:59:26;;;;;;;5.10;3.07;;;17.70;99.90;;;;;;5086731;28;20257;-72
2022/05/19 05:01:53;;;;;;;4.73;3.10;;;17.80;99.90;;;;;;5067528;28;20183;-72
2022/05/19 05:04:26;;;;;;;4.33;3.00;;;17.80;99.90;;;;;;5050888;28;20191;-72
2022/05/19 05:06:55;;;;;;;4.67;3.30;;;17.80;99.90;;;;;;5067514;28;20539;-72
2022/05/19 05:09:22;;;;;;;5.03;2.97;;;17.90;99.90;;;;;;5062635;28;20560;-72
2022/05/19 05:11:48;;;;;;;5.27;3.00;;;18.00;99.90;;;;;;5068002;28;20183;-72
2022/05/19 05:14:16;;;;;;;6.83;3.20;;;18.00;99.90;;;;;;5068405;28;20178;-72
2022/05/19 05:16:48;;;;;;;4.37;2.93;;;18.10;99.90;;;;;;5056140;28;20190;-73
2022/05/19 05:19:21;;;;;;;4.03;3.17;;;18.10;99.90;;;;;;5062040;28;20901;-72
2022/05/19 05:21:55;;;;;;;6.30;3.30;;;18.20;99.90;;;;;;5066827;28;20197;-72
2022/05/19 05:24:21;;;;;;;3.33;2.60;;;18.20;99.90;;;;;;5064805;28;20187;-73
2022/05/19 05:26:48;;;;;;;5.00;2.80;;;18.20;99.90;;;;;;5049291;28;20721;-72
2022/05/19 05:29:16;;;;;;;4.00;2.77;;;18.40;99.90;;;;;;5064929;28;20209;-72
2022/05/19 05:31:45;;;;;;;3.10;2.63;;;18.50;99.90;;;;;;5070769;28;20202;-72
2022/05/19 05:34:12;;;;;;;4.43;2.80;;;18.50;99.90;;;;;;5065041;28;20608;-72
2022/05/19 05:36:39;;;;;;;9.10;3.07;;;18.50;99.90;;;;;;5076365;28;20829;-72
2022/05/19 05:39:07;;;;;;;6.70;3.70;;;18.60;99.90;;;;;;5060030;28;20792;-72
2022/05/19 05:41:37;;;;;;;4.63;3.23;;;18.80;99.90;;;;;;5031981;28;20198;-72
2022/05/19 05:44:03;;;;;;;4.20;3.37;;;18.80;99.90;;;;;;5052666;28;20263;-72
2022/05/19 05:46:30;;;;;;;6.10;3.17;;;18.90;99.90;;;;;;5035400;28;20178;-72
2022/05/19 05:48:56;;;;;;;5.60;3.40;;;18.90;99.90;;;;;;5047263;28;20207;-72
2022/05/19 05:51:23;;;;;;;3.43;2.93;;;19.00;99.90;;;;;;5048104;28;20182;-72
2022/05/19 05:53:49;;;;;;;6.83;2.80;;;19.10;99.90;;;;;;5064915;28;20187;-73
2022/05/19 05:56:20;;;;;;;4.00;3.00;;;19.10;99.90;;;;;;5059074;28;20236;-72
2022/05/19 05:58:47;;;;;;;3.30;2.53;;;19.10;99.90;;;;;;5055979;28;20190;-72
2022/05/19 06:01:17;;;;;;;4.57;3.27;;;19.30;99.90;;;;;;5061063;28;20223;-72
2022/05/19 06:03:49;;;;;;;4.97;3.03;;;19.30;99.90;;;;;;5039592;28;20722;-72
2022/05/19 06:06:19;;;;;;;4.17;2.90;;;19.30;99.90;;;;;;5061395;28;20654;-72
2022/05/19 06:08:46;;;;;;;6.93;2.90;;;19.50;99.90;;;;;;5047510;28;20219;-72
2022/05/19 06:11:13;;;;;;;6.00;3.00;;;19.60;99.90;;;;;;5046329;28;20184;-72
2022/05/19 06:13:50;;;;;;;5.23;3.00;;;19.60;99.90;;;;;;5055341;28;20679;-72
2022/05/19 06:16:21;;;;;;;4.07;3.23;;;19.70;99.90;;;;;;5046470;28;20194;-72
2022/05/19 06:18:51;;;;;;;5.70;3.27;;;19.80;99.90;;;;;;5057594;28;21308;-72
2022/05/19 06:21:18;;;;;;;4.43;3.20;;;20.00;99.90;;;;;;5064240;28;20202;-72
2022/05/19 06:23:44;;;;;;;7.03;3.10;;;20.00;99.90;;;;;;5048223;28;20190;-71
2022/05/19 06:26:16;;;;;;;7.20;3.37;;;20.10;99.90;;;;;;5039293;28;20190;-72
2022/05/19 06:28:48;;;;;;;5.53;3.20;;;20.20;99.90;;;;;;5057370;28;20265;-73
2022/05/19 06:31:14;;;;;;;5.80;3.33;;;20.30;99.90;;;;;;5059607;28;20233;-71
2022/05/19 06:33:42;;;;;;;7.20;3.33;;;20.50;99.90;;;;;;5043799;28;20614;-72
2022/05/19 06:36:10;;;;;;;4.37;3.00;;;20.50;99.90;;;;;;5046264;28;20221;-72
2022/05/19 06:38:39;;;;;;;4.00;2.90;;;20.50;99.90;;;;;;5029606;28;20191;-72
2022/05/19 06:43:50;;;;;;;5.03;3.30;;;20.70;99.90;;;;;;5075058;28;20179;-72
2022/05/19 06:46:18;;;;;;;3.70;3.03;;;20.70;99.90;;;;;;5054461;28;20474;-72
2022/05/19 06:48:45;;;;;;;5.80;3.20;;;20.80;99.90;;;;;;5067916;28;20218;-71
2022/05/19 06:51:13;;;;;;;11.30;3.40;;;20.90;99.90;;;;;;5064351;28;20704;-71
2022/05/19 06:53:40;;;;;;;5.17;3.53;;;21.10;99.90;;;;;;5064855;28;20539;-70
2022/05/19 06:56:10;;;;;;;5.23;3.10;;;21.10;99.90;;;;;;5069943;28;20186;-72
2022/05/19 06:58:37;;;;;;;7.30;3.20;;;21.20;99.90;;;;;;5041506;28;20198;-71
2022/05/19 07:01:05;;;;;;;9.57;3.20;;;21.20;99.90;;;;;;5057685;28;20185;-70
2022/05/19 07:03:32;;;;;;;3.97;3.10;;;21.30;99.90;;;;;;5055871;28;20880;-71
2022/05/19 07:05:58;;;;;;;5.27;3.40;;;21.30;99.90;;;;;;5057488;28;20198;-71
2022/05/19 07:08:30;;;;;;;7.63;3.00;;;21.50;99.90;;;;;;5070857;28;20222;-71
2022/05/19 07:10:56;;;;;;;4.33;2.70;;;21.60;99.90;;;;;;5061860;28;20187;-71
2022/05/19 07:13:24;;;;;;;5.70;2.78;;;21.70;99.90;;;;;;5051552;28;20213;-72
2022/05/19 07:15:51;;;;;;;4.20;2.80;;;21.70;99.90;;;;;;5037590;28;20190;-72
2022/05/19 07:18:17;;;;;;;7.60;3.30;;;21.80;99.90;;;;;;5058492;28;20182;-72
2022/05/19 07:20:44;;;;;;;5.30;3.17;;;22.00;99.90;;;;;;5038238;28;20194;-71
2022/05/19 07:23:30;;;;;;;5.20;3.30;;;22.10;99.90;;;;;;5042450;28;20682;-71
2022/05/19 07:25:56;;;;;;;7.90;3.40;;;22.20;99.90;;;;;;5058866;28;20195;-72
2022/05/19 07:28:23;;;;;;;7.40;3.70;;;22.10;99.90;;;;;;5038806;28;20976;-72
2022/05/19 07:30:49;;;;;;;5.15;3.17;;;22.20;99.90;;;;;;5053261;28;20202;-72
2022/05/19 07:33:16;;;;;;;5.07;2.88;;;22.30;99.90;;;;;;5057077;28;20187;-72
2022/05/19 07:35:47;;;;;;;6.72;3.33;;;22.40;99.90;;;;;;5059242;28;20217;-72
2022/05/19 07:38:15;;;;;;;7.40;3.03;;;22.40;99.90;;;;;;5069201;28;20192;-72
2022/05/19 07:40:43;;;;;;;6.28;3.55;;;22.60;99.90;;;;;;5042850;28;20195;-72
2022/05/19 07:45:59;;;;;;;6.47;3.15;;;22.70;99.90;;;;;;5071460;28;20761;-71
2022/05/19 07:48:27;;;;;;;4.15;2.10;;;22.80;99.90;;;;;;5063349;28;20337;-72
2022/05/19 07:50:55;;;;;;;7.63;2.65;;;22.80;99.90;;;;;;5039827;28;20707;-72
2022/05/19 07:53:25;;;;;;;5.93;3.28;;;22.80;99.90;;;;;;5075287;28;20198;-72
2022/05/19 07:55:51;;;;;;;4.85;2.90;;;23.20;99.90;;;;;;5063610;28;20199;-72
2022/05/19 07:58:18;;;;;;;7.65;3.03;;;23.20;99.90;;;;;;5059523;28;20187;-72
2022/05/19 08:00:46;;;;;;;5.68;3.17;;;23.30;99.90;;;;;;5049909;28;20187;-73
2022/05/19 08:03:14;;;;;;;5.90;3.40;;;23.50;99.90;;;;;;5045957;28;20212;-72
2022/05/19 08:05:42;;;;;;;10.60;3.05;;;23.50;99.90;;;;;;5068653;28;20272;-71
2022/05/19 08:08:10;;;;;;;5.60;2.85;;;23.50;99.90;;;;;;5065566;28;20714;-71
2022/05/19 08:10:37;;;;;;;4.22;2.80;;;23.50;99.90;;;;;;5076996;28;20437;-72
2022/05/19 08:15:53;;;;;;;6.95;3.10;;;23.60;99.90;;;;;;5049045;28;20179;-72
2022/05/19 08:18:25;;;;;;;8.00;3.25;;;23.70;99.90;;;;;;5069590;28;20648;-72
2022/05/19 08:21:04;;;;;;;5.45;3.20;;;23.80;99.90;;;;;;5071514;28;20242;-72
2022/05/19 08:23:40;;;;;;;4.80;3.13;;;23.90;99.90;;;;;;5066966;28;20206;-72
2022/05/19 08:26:08;;;;;;;4.43;3.13;;;24.00;99.90;;;;;;5062478;28;20195;-72
2022/05/19 08:28:41;;;;;;;6.43;2.92;;;23.90;99.90;;;;;;5048358;28;20213;-72
2022/05/19 08:31:20;;;;;;;4.32;3.03;;;24.00;99.90;;;;;;5055960;28;20298;-72
2022/05/19 08:33:49;;;;;;;4.22;2.50;;;24.20;99.90;;;;;;5076238;28;20191;-70
2022/05/19 08:36:15;;;;;;;7.10;2.75;;;24.20;99.90;;;;;;5062276;28;20207;-70
2022/05/19 08:38:47;;;;;;;3.10;2.40;;;24.20;99.90;;;;;;5065373;28;20213;-71
2022/05/19 08:41:35;;;;;;;4.45;2.80;;;24.30;99.90;;;;;;5047105;28;20218;-71
2022/05/19 08:44:19;;;;;;;4.63;2.67;;;24.40;99.90;;;;;;5032509;28;20225;-71
2022/05/19 08:46:54;;;;;;;4.32;2.90;;;24.50;99.90;;;;;;5051389;28;20224;-70
2022/05/19 08:50:03;;;;;;;4.70;2.47;;;24.60;99.90;;;;;;5055456;28;20218;-71
2022/05/19 08:52:44;;;;;;;3.55;2.70;;;24.70;99.90;;;;;;5016049;28;21002;-71
2022/05/19 08:55:15;;;;;;;5.30;2.78;;;24.80;99.90;;;;;;5057263;28;20807;-71
2022/05/19 08:57:58;;;;;;;4.88;2.40;;;24.80;99.90;;;;;;5035094;28;20191;-71
2022/05/19 09:00:43;;;;;;;7.47;2.42;;;24.80;99.90;;;;;;5040219;28;22116;-71
2022/05/19 09:04:16;;;;;;;3.53;2.70;;;24.90;99.90;;;;;;5068424;28;20221;-71
2022/05/19 09:10:37;;;;;;;4.13;2.60;;;25.10;99.90;;;;;;5054447;28;20190;-71
2022/05/19 09:13:41;;;;;;;9.68;2.42;;;25.30;99.90;;;;;;5049234;28;20239;-71
2022/05/19 09:16:21;;;;;;;3.05;2.20;;;25.40;99.90;;;;;;5056629;28;20400;-72
2022/05/19 09:19:16;;;;;;;7.82;2.40;;;25.40;99.90;;;;;;5065941;28;20191;-71
2022/05/19 09:21:55;;;;;;;5.88;2.63;;;25.40;99.90;;;;;;5062715;28;20194;-72
2022/05/19 09:24:26;;;;;;;3.75;2.40;;;25.60;99.90;;;;;;5079752;28;20260;-71
2022/05/19 09:26:58;;;;;;;3.33;2.50;;;25.50;99.90;;;;;;5069756;28;20696;-71
2022/05/19 09:29:43;;;;;;;7.00;3.03;;;25.50;99.90;;;;;;5042805;28;20222;-71
2022/05/19 09:32:30;;;;;;;7.20;3.17;;;25.60;99.90;;;;;;5060939;28;20539;-71
2022/05/19 09:35:15;;;;;;;6.80;2.38;;;25.90;99.90;;;;;;5064104;28;20197;-71
2022/05/19 09:37:49;;;;;;;7.47;2.45;;;26.00;99.90;;;;;;5060719;28;20285;-71
2022/05/19 09:40:33;;;;;;;3.50;2.13;;;26.00;99.90;;;;;;5048032;28;20186;-71
2022/05/19 09:43:12;;;;;;;5.57;2.40;;;26.10;99.90;;;;;;5064796;28;20179;-71
2022/05/19 09:45:53;;;;;;;5.95;2.38;;;26.00;99.90;;;;;;5065384;28;20210;-71
2022/05/19 09:48:33;;;;;;;4.88;2.60;;;26.00;99.90;;;;;;5070427;28;20214;-71
2022/05/19 09:51:07;;;;;;;5.47;2.80;;;26.10;99.90;;;;;;5063615;28;20259;-71
2022/05/19 09:53:52;;;;;;;3.38;2.58;;;26.20;99.90;;;;;;5056921;28;20180;-72
2022/05/19 09:56:23;;;;;;;5.47;2.50;;;26.40;99.90;;;;;;5063419;28;20241;-71
2022/05/19 09:59:05;;;;;;;9.30;2.58;;;26.30;99.90;;;;;;5065149;28;20187;-71
2022/05/19 10:01:45;;;;;;;4.47;2.75;;;26.30;99.90;;;;;;5059728;28;20196;-71
2022/05/19 10:04:51;;;;;;;3.08;2.40;;;26.40;99.90;;;;;;5059527;28;20189;-71
2022/05/19 10:07:24;;;;;;;3.28;2.22;;;26.40;99.90;;;;;;5054436;28;20195;-72
2022/05/19 10:09:55;;;;;;;8.23;2.10;;;26.60;99.90;;;;;;5053779;28;20332;-71
2022/05/19 10:12:44;;;;;;;2.75;2.35;;;26.50;99.90;;;;;;5061575;28;20191;-71
2022/05/19 10:15:22;;;;;;;3.33;1.95;;;26.40;99.90;;;;;;5037588;28;20249;-71
2022/05/19 10:18:15;;;;;;;4.95;2.60;;;26.60;99.90;;;;;;5060879;28;20209;-71
2022/05/19 10:21:08;;;;;;;5.50;2.60;;;26.60;99.90;;;;;;5055652;28;20229;-71
2022/05/19 10:23:58;;;;;;;8.43;2.30;;;26.70;99.90;;;;;;5045160;28;20187;-71
2022/05/19 10:26:37;;;;;;;9.60;2.40;;;26.70;99.90;;;;;;5062902;28;20197;-72
2022/05/19 10:33:07;;;;;;;2.88;2.25;;;26.60;99.90;;;;;;5044814;28;20203;-72
2022/05/19 10:35:58;;;;;;;3.10;2.35;;;26.60;99.90;;;;;;5049844;28;20191;-72
2022/05/19 10:38:58;;;;;;;4.95;2.45;;;26.70;99.90;;;;;;5057541;28;20303;-72
2022/05/19 10:42:09;;;;;;;4.85;2.38;;;26.60;99.90;;;;;;5055570;28;20305;-72
2022/05/19 10:45:07;;;;;;;2.72;2.05;;;26.70;99.90;;;;;;5060734;28;20198;-72
2022/05/19 10:48:29;;;;;;;5.40;2.38;;;26.60;99.90;;;;;;5063747;28;20281;-72
2022/05/19 10:51:17;;;;;;;3.38;2.13;;;26.50;99.90;;;;;;5066437;28;20202;-72
2022/05/19 10:54:12;;;;;;;5.55;2.78;;;26.30;99.90;;;;;;5063427;28;20553;-72
2022/05/19 10:57:19;;;;;;;4.25;2.55;;;26.30;99.90;;;;;;5049680;28;20183;-72
2022/05/19 11:00:22;;;;;;;6.05;2.50;;;26.30;99.90;;;;;;5062133;28;20291;-72
2022/05/19 11:03:12;;;;;;;3.33;2.20;;;26.30;99.90;;;;;;5073298;28;20285;-72
2022/05/19 11:06:29;;;;;;;9.20;2.40;;;26.20;99.90;;;;;;5059784;28;20183;-72
2022/05/19 11:09:45;;;;;;;6.70;2.63;;;26.30;99.90;;;;;;5022517;28;20237;-72
2022/05/19 11:12:40;;;;;;;3.55;2.33;;;26.30;99.90;;;;;;5058022;28;20248;-72
2022/05/19 11:15:47;;;;;;;5.95;2.25;;;26.30;99.90;;;;;;5044718;28;20186;-72
2022/05/19 11:18:34;;;;;;;3.28;2.40;;;26.30;99.90;;;;;;5060387;28;20182;-72
2022/05/19 11:21:51;;;;;;;5.82;2.40;;;26.30;99.90;;;;;;5028238;28;20199;-72
2022/05/19 11:24:34;;;;;;;4.35;2.28;;;26.20;99.90;;;;;;5078529;28;20256;-72
2022/05/19 11:27:11;;;;;;;4.07;2.45;;;26.30;99.90;;;;;;5060146;28;20524;-72
2022/05/19 11:30:09;;;;;;;3.97;2.20;;;26.20;99.90;;;;;;5053702;28;20624;-72
2022/05/19 11:32:37;;;;;;;3.70;2.47;;;26.30;99.90;;;;;;5032282;28;20212;-72
2022/05/19 11:35:47;;;;;;;3.80;2.30;;;26.30;99.90;;;;;;5055654;28;20189;-72
2022/05/19 11:38:32;;;;;;;5.75;2.00;;;26.20;99.90;;;;;;5042867;28;20195;-72
2022/05/19 11:41:20;;;;;;;4.88;2.22;;;26.30;99.90;;;;;;5038241;28;20784;-72
2022/05/19 11:44:10;;;;;;;3.55;2.50;;;26.20;99.90;;;;;;5032267;28;20189;-72
2022/05/19 11:47:10;;;;;;;6.80;2.47;;;26.20;99.90;;;;;;5063693;28;20197;-71
2022/05/19 11:55:58;;;;;;;3.53;2.33;;;26.20;99.90;;;;;;5064399;28;20648;-72
2022/05/19 11:58:35;;;;;;;5.20;2.30;;;26.30;99.90;;;;;;5027354;28;20285;-72
2022/05/19 12:01:06;;;;;;;3.47;2.17;;;26.30;99.90;;;;;;5071439;28;20312;-72
2022/05/19 12:03:59;;;;;;;6.57;2.50;;;26.30;99.90;;;;;;5063514;28;20183;-72
2022/05/19 12:06:44;;;;;;;5.03;2.45;;;26.30;99.90;;;;;;5054700;28;20210;-72
2022/05/19 12:09:37;;;;;;;6.15;2.50;;;26.20;99.90;;;;;;5060645;28;20221;-72
2022/05/19 12:12:22;;;;;;;6.25;2.92;;;26.30;99.90;;;;;;5033894;28;20194;-72
2022/05/19 12:15:21;;;;;;;3.55;2.28;;;26.40;99.90;;;;;;5062392;28;20730;-72
2022/05/19 12:18:24;;;;;;;6.22;2.40;;;26.40;99.40;;;;;;5066801;28;20653;-71
2022/05/19 12:21:03;;;;;;;10.73;2.28;;;26.30;99.90;;;;;;5053971;28;20226;-71
2022/05/19 12:23:49;;;;;;;7.07;2.30;;;26.20;99.90;;;;;;5045666;28;20217;-71
2022/05/19 12:26:24;;;;;;;2.67;2.20;;;26.30;99.90;;;;;;5047030;28;20195;-71
2022/05/19 12:29:06;;;;;;;7.60;2.50;;;26.30;99.90;;;;;;5079052;28;20279;-71
2022/05/19 12:32:00;;;;;;;7.10;2.10;;;26.30;99.40;;;;;;5068040;28;20709;-72
2022/05/19 12:34:45;;;;;;;4.15;2.40;;;26.30;98.70;;;;;;5040040;28;20765;-71
2022/05/19 12:37:42;;;;;;;3.90;2.15;;;26.30;98.40;;;;;;5061517;28;20602;-71
2022/05/19 12:40:28;;;;;;;4.43;2.35;;;26.20;98.70;;;;;;5060577;28;20211;-71
2022/05/19 12:43:14;;;;;;;2.75;2.13;;;26.40;97.00;;;;;;5058725;28;20199;-71
2022/05/19 12:46:18;;;;;;;6.93;2.40;;;26.40;95.40;;;;;;5048012;28;20679;-71
2022/05/19 12:48:50;;;;;;;5.13;2.50;;;26.40;99.90;;;;;;5061935;28;20221;-72
2022/05/19 12:51:45;;;;;;;5.13;2.50;;;;;;;;;;5042999;28;20215;-70
2022/05/19 12:54:17;;;;;;;3.88;2.25;;;26.50;95.70;;;;;;5042853;28;20184;-71
2022/05/19 12:56:47;;;;;;;4.63;2.42;;;26.50;95.40;;;;;;5057743;28;20932;-72
2022/05/19 13:00:05;;;;;;;17.00;2.60;;;26.50;94.90;;;;;;5032981;28;20194;-70
2022/05/19 13:03:04;;;;;;;4.30;2.00;;;26.40;95.90;;;;;;5076593;28;22157;-72
2022/05/19 13:05:57;;;;;;;4.53;2.20;;;26.40;97.70;;;;;;5068015;28;20205;-71
2022/05/19 13:08:40;;;;;;;4.03;2.13;;;26.40;96.30;;;;;;5064749;28;20215;-72
2022/05/19 13:11:18;;;;;;;6.05;2.35;;;26.40;98.00;;;;;;5047401;28;20659;-72
2022/05/19 13:13:58;;;;;;;3.38;2.17;;;26.30;97.90;;;;;;5031753;28;20239;-72
2022/05/19 13:16:39;;;;;;;4.95;1.98;;;26.30;97.90;;;;;;5064313;28;20426;-71
2022/05/19 13:19:22;;;;;;;4.00;2.38;;;26.30;98.10;;;;;;5061762;28;20225;-72
2022/05/19 13:22:19;;;;;;;3.72;2.00;;;26.20;97.80;;;;;;5075018;28;20211;-71
2022/05/19 13:24:47;;;;;;;3.90;1.88;;;26.10;97.50;;;;;;5063205;28;20203;-71
2022/05/19 13:30:33;;;;;;;4.45;2.33;;;25.90;97.80;;;;;;5061037;28;20182;-71
2022/05/19 13:33:12;;;;;;;2.83;2.20;;;25.90;97.30;;;;;;5061754;28;20197;-71
2022/05/19 13:35:39;;;;;;;5.65;2.30;;;25.90;96.70;;;;;;5062541;28;20283;-72
2022/05/19 13:38:22;;;;;;;4.18;2.30;;;25.90;96.40;;;;;;5042058;28;20195;-71
2022/05/19 13:40:51;;;;;;;5.07;2.25;;;26.00;95.60;;;;;;5066883;28;20277;-72
2022/05/19 13:43:34;;;;;;;2.67;2.42;;;25.90;95.20;;;;;;5057244;28;20281;-71
2022/05/19 13:46:20;;;;;;;3.05;2.30;;;25.90;96.00;;;;;;5059984;28;20218;-71
2022/05/19 13:49:20;;;;;;;4.25;2.42;;;25.80;96.60;;;;;;5064188;28;20210;-71
2022/05/19 13:51:50;;;;;;;3.72;2.13;;;25.80;95.90;;;;;;5064509;28;20277;-71
2022/05/19 13:54:51;;;;;;;3.22;2.30;;;25.70;96.60;;;;;;5066820;28;20735;-71
2022/05/19 13:57:27;;;;;;;6.00;2.10;;;25.60;96.00;;;;;;5065031;28;20273;-71
2022/05/19 14:00:01;;;;;;;6.40;2.50;;;25.60;96.20;;;;;;5063688;28;20289;-71
2022/05/19 14:02:36;;;;;;;4.97;2.08;;;25.60;95.70;;;;;;5065636;28;20201;-71
2022/05/19 14:05:13;;;;;;;6.95;2.60;;;25.50;95.80;;;;;;5057740;28;20190;-71